Broekhem, Netherlands
Current Conditions -  °F | °C
As of 6:25 AM on Thursday 23 Oct 2014 (Local Time) from EHBK Reporting Station
Overcast Overcast  
Wind Chill: 45°   Ceiling: 4400
Heat Index: 48°   Visibility: 5mi
Dew Point: 46°   Wind: 7mph
Humidity: 93%   Direction: 220°SW
Pressure: 30.18"   Gusts: NA
Location:  50.87°N, 5.82°E
Report Text: EHBK 230425Z AUTO 22006KT 8000 OVC044 09/08 Q1022 BECMG 9999
Loading
Personal Weather Stations






























Interactive Weather Map
Tropical Storm Tracking
New forecast layout! Learn more

10-Day Weather Forecast

Advertisements
Track Severe Weather on mobile